sensor_id;sensor_type;location;lat;lon;timestamp;temperature;humidity
81867;DHT22;71318;-36.550;-64.300;2023-07-13T12:39:12;2.90;99.90
81867;DHT22;71318;-36.550;-64.300;2023-07-13T12:41:38;2.90;99.90
81867;DHT22;71318;-36.550;-64.300;2023-07-13T13:22:53;3.40;99.90
81867;DHT22;71318;-36.550;-64.300;2023-07-13T13:25:23;3.40;99.90
81867;DHT22;71318;-36.550;-64.300;2023-07-13T13:27:50;3.50;99.90
81867;DHT22;71318;-36.550;-64.300;2023-07-13T13:30:17;3.60;99.90
81867;DHT22;71318;-36.550;-64.300;2023-07-13T13:32:47;3.60;99.90
81867;DHT22;71318;-36.550;-64.300;2023-07-13T13:35:17;3.60;99.90
81867;DHT22;71318;-36.550;-64.300;2023-07-13T13:37:44;3.60;99.90
81867;DHT22;71318;-36.550;-64.300;2023-07-13T13:40:17;3.60;99.90
81867;DHT22;71318;-36.550;-64.300;2023-07-13T13:42:44;3.70;99.90
81867;DHT22;71318;-36.550;-64.300;2023-07-13T13:45:11;3.90;99.90
81867;DHT22;71318;-36.550;-64.300;2023-07-13T13:47:41;3.90;99.90
81867;DHT22;71318;-36.550;-64.300;2023-07-13T13:50:12;3.90;99.90
81867;DHT22;71318;-36.550;-64.300;2023-07-13T13:52:40;4.00;99.90
81867;DHT22;71318;-36.550;-64.300;2023-07-13T13:57:39;4.30;99.90
81867;DHT22;71318;-36.550;-64.300;2023-07-13T14:00:08;4.20;99.90
81867;DHT22;71318;-36.550;-64.300;2023-07-13T14:02:34;4.20;99.90
81867;DHT22;71318;-36.550;-64.300;2023-07-13T14:05:02;4.20;99.90
81867;DHT22;71318;-36.550;-64.300;2023-07-13T14:07:29;4.30;99.90
81867;DHT22;71318;-36.550;-64.300;2023-07-13T14:09:57;4.40;99.90
81867;DHT22;71318;-36.550;-64.300;2023-07-13T14:12:24;4.40;99.90
81867;DHT22;71318;-36.550;-64.300;2023-07-13T14:14:54;4.70;99.90
81867;DHT22;71318;-36.550;-64.300;2023-07-13T14:17:21;4.60;99.80
81867;DHT22;71318;-36.550;-64.300;2023-07-13T14:19:49;4.60;99.90
81867;DHT22;71318;-36.550;-64.300;2023-07-13T14:22:26;4.70;99.90
81867;DHT22;71318;-36.550;-64.300;2023-07-13T14:24:53;4.80;99.90
81867;DHT22;71318;-36.550;-64.300;2023-07-13T14:27:20;4.90;99.90
81867;DHT22;71318;-36.550;-64.300;2023-07-13T14:29:47;4.80;98.40
81867;DHT22;71318;-36.550;-64.300;2023-07-13T14:32:13;4.80;99.90
81867;DHT22;71318;-36.550;-64.300;2023-07-13T14:34:40;4.90;99.90
81867;DHT22;71318;-36.550;-64.300;2023-07-13T14:37:10;4.80;99.10
81867;DHT22;71318;-36.550;-64.300;2023-07-13T14:39:38;4.90;99.90
81867;DHT22;71318;-36.550;-64.300;2023-07-13T14:42:04;4.90;99.50
81867;DHT22;71318;-36.550;-64.300;2023-07-13T14:44:32;5.10;99.90
81867;DHT22;71318;-36.550;-64.300;2023-07-13T14:46:59;4.90;99.90
81867;DHT22;71318;-36.550;-64.300;2023-07-13T14:51:52;4.70;98.80
81867;DHT22;71318;-36.550;-64.300;2023-07-13T14:54:20;4.80;99.90
81867;DHT22;71318;-36.550;-64.300;2023-07-13T14:56:47;4.80;99.90
81867;DHT22;71318;-36.550;-64.300;2023-07-13T14:59:13;5.00;99.90
81867;DHT22;71318;-36.550;-64.300;2023-07-13T15:01:39;5.20;99.90
81867;DHT22;71318;-36.550;-64.300;2023-07-13T15:04:06;5.20;99.90
81867;DHT22;71318;-36.550;-64.300;2023-07-13T15:06:52;5.20;99.90
81867;DHT22;71318;-36.550;-64.300;2023-07-13T15:09:18;5.00;99.10
81867;DHT22;71318;-36.550;-64.300;2023-07-13T15:11:44;5.00;99.90
81867;DHT22;71318;-36.550;-64.300;2023-07-13T15:14:11;5.30;99.90
81867;DHT22;71318;-36.550;-64.300;2023-07-13T15:16:37;5.50;99.90
81867;DHT22;71318;-36.550;-64.300;2023-07-13T15:19:03;5.70;99.90
81867;DHT22;71318;-36.550;-64.300;2023-07-13T15:21:30;5.40;98.00
81867;DHT22;71318;-36.550;-64.300;2023-07-13T15:24:00;5.10;99.10
81867;DHT22;71318;-36.550;-64.300;2023-07-13T15:26:28;5.20;99.40
81867;DHT22;71318;-36.550;-64.300;2023-07-13T15:28:55;5.30;99.90
81867;DHT22;71318;-36.550;-64.300;2023-07-13T15:31:25;5.50;99.90
81867;DHT22;71318;-36.550;-64.300;2023-07-13T15:33:55;5.40;99.20
81867;DHT22;71318;-36.550;-64.300;2023-07-13T15:36:23;5.40;99.90
81867;DHT22;71318;-36.550;-64.300;2023-07-13T15:38:52;5.40;98.10
81867;DHT22;71318;-36.550;-64.300;2023-07-13T15:41:22;5.50;99.90
81867;DHT22;71318;-36.550;-64.300;2023-07-13T15:43:50;5.50;99.80
81867;DHT22;71318;-36.550;-64.300;2023-07-13T15:46:20;5.50;98.10
81867;DHT22;71318;-36.550;-64.300;2023-07-13T15:48:48;5.30;99.90
81867;DHT22;71318;-36.550;-64.300;2023-07-13T15:51:24;5.30;99.90
81867;DHT22;71318;-36.550;-64.300;2023-07-13T15:53:55;5.20;99.90
81867;DHT22;71318;-36.550;-64.300;2023-07-13T15:56:23;5.30;97.80
81867;DHT22;71318;-36.550;-64.300;2023-07-13T15:58:50;5.50;99.90
81867;DHT22;71318;-36.550;-64.300;2023-07-13T16:01:17;5.50;99.20
81867;DHT22;71318;-36.550;-64.300;2023-07-13T16:03:45;5.40;97.50
81867;DHT22;71318;-36.550;-64.300;2023-07-13T16:06:19;5.40;98.50
81867;DHT22;71318;-36.550;-64.300;2023-07-13T16:08:48;5.50;95.60
81867;DHT22;71318;-36.550;-64.300;2023-07-13T16:11:20;5.70;97.60
81867;DHT22;71318;-36.550;-64.300;2023-07-13T16:13:47;5.80;99.00
81867;DHT22;71318;-36.550;-64.300;2023-07-13T16:16:19;6.20;97.80
81867;DHT22;71318;-36.550;-64.300;2023-07-13T16:18:45;5.90;96.00
81867;DHT22;71318;-36.550;-64.300;2023-07-13T16:21:12;5.70;93.50
81867;DHT22;71318;-36.550;-64.300;2023-07-13T16:23:39;5.90;97.00
81867;DHT22;71318;-36.550;-64.300;2023-07-13T16:26:15;5.90;95.30
81867;DHT22;71318;-36.550;-64.300;2023-07-13T16:28:45;6.10;94.80
81867;DHT22;71318;-36.550;-64.300;2023-07-13T16:31:11;6.00;96.20
81867;DHT22;71318;-36.550;-64.300;2023-07-13T16:33:38;5.90;95.50
81867;DHT22;71318;-36.550;-64.300;2023-07-13T16:36:07;6.10;93.00
81867;DHT22;71318;-36.550;-64.300;2023-07-13T16:38:36;6.10;94.20
81867;DHT22;71318;-36.550;-64.300;2023-07-13T16:41:03;6.40;96.70
81867;DHT22;71318;-36.550;-64.300;2023-07-13T16:43:34;6.60;93.60
81867;DHT22;71318;-36.550;-64.300;2023-07-13T16:46:02;6.30;96.40
81867;DHT22;71318;-36.550;-64.300;2023-07-13T16:48:29;6.20;95.70
81867;DHT22;71318;-36.550;-64.300;2023-07-13T16:50:56;6.20;92.60
81867;DHT22;71318;-36.550;-64.300;2023-07-13T16:53:24;6.30;91.20
81867;DHT22;71318;-36.550;-64.300;2023-07-13T16:55:52;6.50;94.40
81867;DHT22;71318;-36.550;-64.300;2023-07-13T16:58:24;6.50;88.50
81867;DHT22;71318;-36.550;-64.300;2023-07-13T17:00:51;6.40;90.10
81867;DHT22;71318;-36.550;-64.300;2023-07-13T17:03:18;6.50;92.70
81867;DHT22;71318;-36.550;-64.300;2023-07-13T17:05:45;6.50;90.70
81867;DHT22;71318;-36.550;-64.300;2023-07-13T17:10:40;6.40;92.20
81867;DHT22;71318;-36.550;-64.300;2023-07-13T17:13:11;6.50;90.20
81867;DHT22;71318;-36.550;-64.300;2023-07-13T17:15:38;6.40;88.80
81867;DHT22;71318;-36.550;-64.300;2023-07-13T17:18:05;6.60;90.50
81867;DHT22;71318;-36.550;-64.300;2023-07-13T17:20:36;6.30;89.70
81867;DHT22;71318;-36.550;-64.300;2023-07-13T17:23:15;6.30;89.60
81867;DHT22;71318;-36.550;-64.300;2023-07-13T17:25:42;6.40;91.60
81867;DHT22;71318;-36.550;-64.300;2023-07-13T17:28:08;6.60;91.60
81867;DHT22;71318;-36.550;-64.300;2023-07-13T17:30:38;6.40;90.70
81867;DHT22;71318;-36.550;-64.300;2023-07-13T17:33:07;6.50;91.80
81867;DHT22;71318;-36.550;-64.300;2023-07-13T17:35:34;6.70;94.60
81867;DHT22;71318;-36.550;-64.300;2023-07-13T17:38:02;6.50;90.10
81867;DHT22;71318;-36.550;-64.300;2023-07-13T17:40:29;6.30;91.50
81867;DHT22;71318;-36.550;-64.300;2023-07-13T17:42:56;6.40;91.70
81867;DHT22;71318;-36.550;-64.300;2023-07-13T17:45:29;6.20;90.40
81867;DHT22;71318;-36.550;-64.300;2023-07-13T17:47:57;6.30;91.90
81867;DHT22;71318;-36.550;-64.300;2023-07-13T17:50:34;6.20;93.30
81867;DHT22;71318;-36.550;-64.300;2023-07-13T17:53:02;6.20;91.60
81867;DHT22;71318;-36.550;-64.300;2023-07-13T17:55:32;6.20;94.70
81867;DHT22;71318;-36.550;-64.300;2023-07-13T17:58:01;6.20;95.20
81867;DHT22;71318;-36.550;-64.300;2023-07-13T18:00:30;6.30;92.20
81867;DHT22;71318;-36.550;-64.300;2023-07-13T18:03:21;6.10;92.50
81867;DHT22;71318;-36.550;-64.300;2023-07-13T18:05:58;6.20;90.80
81867;DHT22;71318;-36.550;-64.300;2023-07-13T18:08:29;6.00;92.20
81867;DHT22;71318;-36.550;-64.300;2023-07-13T18:10:58;6.00;93.80
81867;DHT22;71318;-36.550;-64.300;2023-07-13T18:13:26;6.00;92.90
81867;DHT22;71318;-36.550;-64.300;2023-07-13T18:15:55;5.80;93.10
81867;DHT22;71318;-36.550;-64.300;2023-07-13T18:18:26;6.10;93.40
81867;DHT22;71318;-36.550;-64.300;2023-07-13T18:20:54;6.10;94.70
81867;DHT22;71318;-36.550;-64.300;2023-07-13T18:23:22;5.80;91.40
81867;DHT22;71318;-36.550;-64.300;2023-07-13T18:25:50;5.90;95.50
81867;DHT22;71318;-36.550;-64.300;2023-07-13T18:28:22;6.00;93.50
81867;DHT22;71318;-36.550;-64.300;2023-07-13T18:30:52;6.10;90.50
81867;DHT22;71318;-36.550;-64.300;2023-07-13T18:33:26;6.10;94.10
81867;DHT22;71318;-36.550;-64.300;2023-07-13T18:35:56;6.20;92.40
81867;DHT22;71318;-36.550;-64.300;2023-07-13T18:38:26;6.00;92.00
81867;DHT22;71318;-36.550;-64.300;2023-07-13T18:40:57;6.20;94.10
81867;DHT22;71318;-36.550;-64.300;2023-07-13T18:43:24;6.10;95.00
81867;DHT22;71318;-36.550;-64.300;2023-07-13T18:45:58;6.10;95.60
81867;DHT22;71318;-36.550;-64.300;2023-07-13T18:48:26;6.00;94.60
81867;DHT22;71318;-36.550;-64.300;2023-07-13T18:50:54;5.90;96.30
81867;DHT22;71318;-36.550;-64.300;2023-07-13T18:53:23;5.80;93.80
81867;DHT22;71318;-36.550;-64.300;2023-07-13T18:55:52;5.80;96.60
81867;DHT22;71318;-36.550;-64.300;2023-07-13T18:58:18;5.80;95.10
81867;DHT22;71318;-36.550;-64.300;2023-07-13T19:00:47;5.80;94.30
81867;DHT22;71318;-36.550;-64.300;2023-07-13T19:03:16;5.80;97.90
81867;DHT22;71318;-36.550;-64.300;2023-07-13T19:05:43;5.80;96.20
81867;DHT22;71318;-36.550;-64.300;2023-07-13T19:08:14;5.80;94.30
81867;DHT22;71318;-36.550;-64.300;2023-07-13T19:10:42;5.70;93.70
81867;DHT22;71318;-36.550;-64.300;2023-07-13T19:13:09;5.80;96.30
81867;DHT22;71318;-36.550;-64.300;2023-07-13T19:15:36;5.90;95.80
81867;DHT22;71318;-36.550;-64.300;2023-07-13T19:18:17;5.70;95.20
81867;DHT22;71318;-36.550;-64.300;2023-07-13T19:20:44;5.70;93.10
81867;DHT22;71318;-36.550;-64.300;2023-07-13T19:25:47;5.70;92.70
81867;DHT22;71318;-36.550;-64.300;2023-07-13T19:28:26;5.70;94.70
81867;DHT22;71318;-36.550;-64.300;2023-07-13T19:30:53;5.70;92.50
81867;DHT22;71318;-36.550;-64.300;2023-07-13T19:33:19;5.70;94.20
81867;DHT22;71318;-36.550;-64.300;2023-07-13T19:35:46;5.70;92.80
81867;DHT22;71318;-36.550;-64.300;2023-07-13T19:38:13;5.70;94.30
81867;DHT22;71318;-36.550;-64.300;2023-07-13T19:40:40;5.80;92.50
81867;DHT22;71318;-36.550;-64.300;2023-07-13T19:43:10;5.70;94.40
81867;DHT22;71318;-36.550;-64.300;2023-07-13T19:45:37;5.70;94.20
81867;DHT22;71318;-36.550;-64.300;2023-07-13T19:48:03;5.80;94.90
81867;DHT22;71318;-36.550;-64.300;2023-07-13T19:50:30;5.70;94.80
81867;DHT22;71318;-36.550;-64.300;2023-07-13T19:52:57;5.70;92.80
81867;DHT22;71318;-36.550;-64.300;2023-07-13T19:55:25;5.70;92.90
81867;DHT22;71318;-36.550;-64.300;2023-07-13T19:57:53;5.70;93.00
81867;DHT22;71318;-36.550;-64.300;2023-07-13T20:00:21;5.80;93.40
81867;DHT22;71318;-36.550;-64.300;2023-07-13T20:02:48;5.80;93.10
81867;DHT22;71318;-36.550;-64.300;2023-07-13T20:05:15;5.80;93.70
81867;DHT22;71318;-36.550;-64.300;2023-07-13T20:07:43;5.80;94.90
81867;DHT22;71318;-36.550;-64.300;2023-07-13T20:10:17;5.80;94.40
81867;DHT22;71318;-36.550;-64.300;2023-07-13T20:12:43;5.70;94.30
81867;DHT22;71318;-36.550;-64.300;2023-07-13T20:15:14;5.70;93.50
81867;DHT22;71318;-36.550;-64.300;2023-07-13T20:17:41;5.70;94.40
81867;DHT22;71318;-36.550;-64.300;2023-07-13T20:22:45;5.70;94.20
81867;DHT22;71318;-36.550;-64.300;2023-07-13T20:25:30;5.70;96.50
81867;DHT22;71318;-36.550;-64.300;2023-07-13T20:27:58;5.70;94.80
81867;DHT22;71318;-36.550;-64.300;2023-07-13T20:30:34;5.70;94.60
81867;DHT22;71318;-36.550;-64.300;2023-07-13T20:33:01;5.70;94.30
81867;DHT22;71318;-36.550;-64.300;2023-07-13T20:35:29;5.60;93.90
81867;DHT22;71318;-36.550;-64.300;2023-07-13T20:37:56;5.60;93.00
81867;DHT22;71318;-36.550;-64.300;2023-07-13T20:40:23;5.60;93.90
81867;DHT22;71318;-36.550;-64.300;2023-07-13T20:42:50;5.60;93.30
81867;DHT22;71318;-36.550;-64.300;2023-07-13T20:45:17;5.60;94.10
81867;DHT22;71318;-36.550;-64.300;2023-07-13T20:47:44;5.60;94.60
81867;DHT22;71318;-36.550;-64.300;2023-07-13T20:52:43;5.50;92.00
81867;DHT22;71318;-36.550;-64.300;2023-07-13T20:55:15;5.50;91.80
81867;DHT22;71318;-36.550;-64.300;2023-07-13T20:57:42;5.50;92.60
81867;DHT22;71318;-36.550;-64.300;2023-07-13T21:00:15;5.50;94.00
81867;DHT22;71318;-36.550;-64.300;2023-07-13T21:02:42;5.50;93.10
81867;DHT22;71318;-36.550;-64.300;2023-07-13T21:05:12;5.50;92.90
81867;DHT22;71318;-36.550;-64.300;2023-07-13T21:07:39;5.50;93.60
81867;DHT22;71318;-36.550;-64.300;2023-07-13T21:10:24;5.50;92.80
81867;DHT22;71318;-36.550;-64.300;2023-07-13T21:12:52;5.50;95.20
81867;DHT22;71318;-36.550;-64.300;2023-07-13T21:15:19;5.40;93.70
81867;DHT22;71318;-36.550;-64.300;2023-07-13T21:17:47;5.40;93.30
81867;DHT22;71318;-36.550;-64.300;2023-07-13T21:20:18;5.40;94.30
81867;DHT22;71318;-36.550;-64.300;2023-07-13T21:22:45;5.40;93.90
81867;DHT22;71318;-36.550;-64.300;2023-07-13T21:25:16;5.40;94.70
81867;DHT22;71318;-36.550;-64.300;2023-07-13T21:27:42;5.30;96.30
81867;DHT22;71318;-36.550;-64.300;2023-07-13T21:30:13;5.40;94.20
81867;DHT22;71318;-36.550;-64.300;2023-07-13T21:32:40;5.40;95.60
81867;DHT22;71318;-36.550;-64.300;2023-07-13T21:35:14;5.40;94.80
81867;DHT22;71318;-36.550;-64.300;2023-07-13T21:37:42;5.40;95.10
81867;DHT22;71318;-36.550;-64.300;2023-07-13T21:40:12;5.40;93.70
81867;DHT22;71318;-36.550;-64.300;2023-07-13T21:42:38;5.30;93.50
81867;DHT22;71318;-36.550;-64.300;2023-07-13T21:45:13;5.30;93.90
81867;DHT22;71318;-36.550;-64.300;2023-07-13T21:47:42;5.30;92.90
81867;DHT22;71318;-36.550;-64.300;2023-07-13T21:50:08;5.20;93.40
81867;DHT22;71318;-36.550;-64.300;2023-07-13T21:52:35;5.20;93.60
81867;DHT22;71318;-36.550;-64.300;2023-07-13T21:55:01;5.20;94.00
81867;DHT22;71318;-36.550;-64.300;2023-07-13T21:57:29;5.20;93.70
81867;DHT22;71318;-36.550;-64.300;2023-07-13T21:59:55;5.10;92.70
81867;DHT22;71318;-36.550;-64.300;2023-07-13T22:02:22;5.10;93.30
81867;DHT22;71318;-36.550;-64.300;2023-07-13T22:04:48;5.10;94.10
81867;DHT22;71318;-36.550;-64.300;2023-07-13T22:07:14;5.10;94.40
81867;DHT22;71318;-36.550;-64.300;2023-07-13T22:09:41;5.10;94.80
81867;DHT22;71318;-36.550;-64.300;2023-07-13T22:12:07;5.10;95.00
81867;DHT22;71318;-36.550;-64.300;2023-07-13T22:14:34;5.00;95.20
81867;DHT22;71318;-36.550;-64.300;2023-07-13T22:17:00;4.90;94.80
81867;DHT22;71318;-36.550;-64.300;2023-07-13T22:19:27;4.80;95.00
81867;DHT22;71318;-36.550;-64.300;2023-07-13T22:21:55;4.70;95.20
81867;DHT22;71318;-36.550;-64.300;2023-07-13T22:24:21;4.60;96.00
81867;DHT22;71318;-36.550;-64.300;2023-07-13T22:26:47;4.50;96.10
81867;DHT22;71318;-36.550;-64.300;2023-07-13T22:29:20;4.40;96.50
81867;DHT22;71318;-36.550;-64.300;2023-07-13T22:31:46;4.30;97.10
81867;DHT22;71318;-36.550;-64.300;2023-07-13T22:34:17;4.20;97.10
81867;DHT22;71318;-36.550;-64.300;2023-07-13T22:36:43;4.10;97.00
81867;DHT22;71318;-36.550;-64.300;2023-07-13T22:39:14;3.90;97.90
81867;DHT22;71318;-36.550;-64.300;2023-07-13T22:41:40;3.80;98.80
81867;DHT22;71318;-36.550;-64.300;2023-07-13T22:44:11;3.70;98.90
81867;DHT22;71318;-36.550;-64.300;2023-07-13T22:46:39;3.50;98.40
81867;DHT22;71318;-36.550;-64.300;2023-07-13T22:49:19;3.00;97.60
81867;DHT22;71318;-36.550;-64.300;2023-07-13T22:51:46;2.80;99.40
81867;DHT22;71318;-36.550;-64.300;2023-07-13T22:54:12;2.60;99.90
81867;DHT22;71318;-36.550;-64.300;2023-07-13T22:56:39;2.50;99.90
81867;DHT22;71318;-36.550;-64.300;2023-07-13T22:59:05;2.50;99.90
81867;DHT22;71318;-36.550;-64.300;2023-07-13T23:01:32;2.40;99.90
81867;DHT22;71318;-36.550;-64.300;2023-07-13T23:03:59;2.30;99.90
81867;DHT22;71318;-36.550;-64.300;2023-07-13T23:06:27;2.10;99.90
81867;DHT22;71318;-36.550;-64.300;2023-07-13T23:08:54;2.10;99.90
81867;DHT22;71318;-36.550;-64.300;2023-07-13T23:11:22;2.00;99.90
81867;DHT22;71318;-36.550;-64.300;2023-07-13T23:13:49;1.90;99.90
81867;DHT22;71318;-36.550;-64.300;2023-07-13T23:16:16;1.80;99.90
81867;DHT22;71318;-36.550;-64.300;2023-07-13T23:18:43;1.60;99.90
81867;DHT22;71318;-36.550;-64.300;2023-07-13T23:21:11;1.40;99.90
81867;DHT22;71318;-36.550;-64.300;2023-07-13T23:23:38;1.30;99.90
81867;DHT22;71318;-36.550;-64.300;2023-07-13T23:26:10;1.30;99.90
81867;DHT22;71318;-36.550;-64.300;2023-07-13T23:28:37;1.10;99.90
81867;DHT22;71318;-36.550;-64.300;2023-07-13T23:31:04;1.10;99.90
81867;DHT22;71318;-36.550;-64.300;2023-07-13T23:33:30;1.10;99.90
81867;DHT22;71318;-36.550;-64.300;2023-07-13T23:35:57;1.00;99.90
81867;DHT22;71318;-36.550;-64.300;2023-07-13T23:38:27;1.00;99.90
81867;DHT22;71318;-36.550;-64.300;2023-07-13T23:40:53;1.00;99.90
81867;DHT22;71318;-36.550;-64.300;2023-07-13T23:43:20;1.00;99.90
81867;DHT22;71318;-36.550;-64.300;2023-07-13T23:45:46;1.00;99.90
81867;DHT22;71318;-36.550;-64.300;2023-07-13T23:48:13;0.90;99.90
81867;DHT22;71318;-36.550;-64.300;2023-07-13T23:50:42;0.90;99.90
81867;DHT22;71318;-36.550;-64.300;2023-07-13T23:53:10;0.70;99.90
81867;DHT22;71318;-36.550;-64.300;2023-07-13T23:55:37;0.60;99.90
81867;DHT22;71318;-36.550;-64.300;2023-07-13T23:58:03;0.50;99.90
